Kissee Mills, Missouri
Current Conditions -  °F | °C
As of 7:45 AM on Thursday 30 Oct 2014 (Local Time) from KBBG Reporting Station
Few Clouds Few Clouds  
Wind Chill: 37°   Ceiling: Unl
Heat Index: 37°   Visibility: 10mi
Dew Point: 36°   Wind: 0mph
Humidity: 93%   Direction: NA
Pressure: 30.13"   Gusts: NA
Location:  36.68°N, 93.05°W
Report Text: KBBG 301245Z 00000KT 10SM FEW090 03/02 A3013
Loading
Personal Weather Stations






























Interactive Weather Map
Tropical Storm Tracking
New forecast layout! Learn more

10-Day Weather Forecast

Advertisements
Track Severe Weather on mobile